Terminal Aerodrome Forecast
Issued by NWS

Home | Current Version | Previous Version | Text Only | Print | Product List | Glossary On
Versions: 1 2 3 4 5 6 7 8 9 10 11 12 13 14 15 16 17 18 19 20 21
000
FTUS45 KGJT 200534
TAFASE
TAF
KASE 200534Z 2006/2106 20007KT P6SM FEW250
     FM201700 33006G16KT P6SM FEW200
     FM202200 29009KT P6SM BKN150
     FM202300 26009KT P6SM BKN150
     FM210200 23006KT P6SM OVC100=

USA.gov is the U.S. government's official web portal to all federal, state and local government web resources and services.